Time;durP1;ratioP1;P1;durP2;ratioP2;P2;SDS_P1;SDS_P2;PMS_P1;PMS_P2;Temp;Humidity;BMP_temperature;BMP_pressure;BME280_temperature;BME280_humidity;BME280_pressure;Samples;Min_cycle;Max_cycle;Signal;HPM_P1;HPM_P2
2023/01/17 00:00:42;;;;;;;3.50;0.80;;;4.50;73.80;;;;;;4123014;28;20122;-86
2023/01/17 00:02:43;;;;;;;1.95;0.70;;;4.50;73.80;;;;;;4130821;28;20037;-88
2023/01/17 00:12:04;;;;;;;4.72;0.90;;;4.50;73.60;;;;;;4149836;28;20492;-88
2023/01/17 00:14:04;;;;;;;3.40;1.00;;;4.60;73.60;;;;;;4133569;28;20030;-88
2023/01/17 00:16:05;;;;;;;1.90;0.77;;;4.50;73.50;;;;;;4156838;28;20091;-88
2023/01/17 00:18:06;;;;;;;3.60;0.90;;;4.50;73.50;;;;;;4137014;28;20035;-88
2023/01/17 01:35:03;;;;;;;1.95;0.93;;;4.20;73.00;;;;;;4154515;28;20029;-85
2023/01/17 01:37:24;;;;;;;2.58;0.88;;;4.10;73.00;;;;;;4138635;28;20050;-88
2023/01/17 01:39:44;;;;;;;4.03;1.02;;;4.10;73.20;;;;;;4152736;28;20264;-85
2023/01/17 01:42:13;;;;;;;2.15;1.17;;;4.10;73.20;;;;;;4134614;28;20065;-86
2023/01/17 01:44:48;;;;;;;2.60;1.10;;;4.00;73.20;;;;;;4135203;28;20497;-86
2023/01/17 01:47:17;;;;;;;4.20;0.80;;;4.00;73.30;;;;;;4156026;28;20095;-86
2023/01/17 01:49:44;;;;;;;2.65;1.10;;;4.00;73.30;;;;;;4152851;28;20036;-86
2023/01/17 01:52:07;;;;;;;3.45;0.98;;;3.90;73.40;;;;;;4146573;28;20049;-86
2023/01/17 01:54:42;;;;;;;1.88;1.00;;;4.00;73.50;;;;;;4148569;28;20139;-87
2023/01/17 01:56:45;;;;;;;4.47;1.35;;;3.90;73.60;;;;;;4133339;28;20026;-85
2023/01/17 01:58:50;;;;;;;3.35;1.38;;;3.90;73.70;;;;;;4154031;28;20093;-87
2023/01/17 02:00:52;;;;;;;2.78;1.33;;;3.90;73.80;;;;;;4147595;28;20034;-87
2023/01/17 02:02:56;;;;;;;7.45;1.40;;;3.80;73.90;;;;;;4136623;28;20044;-87
2023/01/17 02:04:58;;;;;;;4.13;1.45;;;3.80;74.70;;;;;;4152051;28;20112;-86
2023/01/17 02:07:01;;;;;;;2.47;1.10;;;3.80;74.00;;;;;;4153519;28;20104;-86
2023/01/17 02:09:04;;;;;;;;;;;3.80;74.10;;;;;;4154739;28;20633;-86
2023/01/17 02:11:05;;;;;;;5.15;1.55;;;3.90;74.40;;;;;;4149260;28;19921;-87
2023/01/17 02:13:07;;;;;;;4.13;1.27;;;3.80;74.00;;;;;;4146391;28;20034;-87
2023/01/17 02:15:09;;;;;;;2.60;1.07;;;3.80;74.10;;;;;;4153736;28;20021;-86
2023/01/17 02:17:31;;;;;;;2.90;1.35;;;3.80;74.20;;;;;;4149888;28;20132;-87
2023/01/17 02:19:55;;;;;;;3.97;1.48;;;3.80;74.40;;;;;;4152918;28;20370;-87
2023/01/17 02:22:16;;;;;;;2.08;1.30;;;3.80;74.40;;;;;;4148903;28;23166;-87
2023/01/17 02:24:51;;;;;;;3.28;1.30;;;3.70;74.40;;;;;;4155575;28;20038;-87
2023/01/17 02:27:03;;;;;;;4.30;1.40;;;3.70;74.50;;;;;;4124052;28;20053;-87
2023/01/17 02:29:30;;;;;;;2.97;1.60;;;3.70;74.60;;;;;;4155016;28;20025;-87
2023/01/17 02:32:00;;;;;;;2.70;1.60;;;3.70;74.70;;;;;;4148366;28;20393;-86
2023/01/17 02:34:33;;;;;;;2.92;1.15;;;3.70;74.80;;;;;;4146810;28;20036;-88
2023/01/17 02:36:54;;;;;;;2.63;1.35;;;3.70;74.90;;;;;;4134358;28;20052;-87
2023/01/17 02:39:06;;;;;;;4.05;1.42;;;3.70;74.90;;;;;;4155222;28;20034;-87
2023/01/17 02:41:17;;;;;;;1.80;1.33;;;3.70;74.90;;;;;;4140670;28;20029;-88
2023/01/17 02:43:19;;;;;;;4.57;1.60;;;3.70;74.90;;;;;;4150980;28;20347;-87
2023/01/17 02:45:22;;;;;;;3.72;1.58;;;3.70;75.00;;;;;;4136160;28;20040;-87
2023/01/17 02:47:24;;;;;;;5.35;1.50;;;3.70;75.10;;;;;;4151785;28;20025;-88
2023/01/17 02:49:29;;;;;;;3.92;1.70;;;3.70;75.00;;;;;;4154831;28;20017;-87
2023/01/17 02:51:53;;;;;;;4.57;1.48;;;3.60;75.00;;;;;;4139556;28;20109;-88
2023/01/17 02:53:59;;;;;;;4.00;1.50;;;3.60;75.10;;;;;;4146583;28;20048;-87
2023/01/17 02:56:09;;;;;;;2.00;1.25;;;3.70;75.10;;;;;;4158339;28;20052;-87
2023/01/17 02:58:42;;;;;;;3.30;1.63;;;3.70;75.20;;;;;;4155532;28;20033;-87
2023/01/17 03:00:55;;;;;;;3.88;1.42;;;3.60;75.30;;;;;;4132852;28;20029;-87
2023/01/17 03:03:26;;;;;;;2.95;1.60;;;3.60;75.30;;;;;;4133710;28;20067;-87
2023/01/17 03:05:48;;;;;;;3.53;1.38;;;3.60;76.10;;;;;;4143599;28;20037;-86
2023/01/17 03:07:50;;;;;;;2.55;1.33;;;3.60;75.40;;;;;;4112614;28;20030;-87
2023/01/17 03:09:58;;;;;;;2.38;1.20;;;3.60;75.40;;;;;;4150327;28;20056;-85
2023/01/17 03:12:02;;;;;;;3.80;1.60;;;3.60;75.40;;;;;;4135475;28;20117;-88
2023/01/17 03:14:03;;;;;;;2.22;1.35;;;3.60;75.40;;;;;;4138951;28;20081;-88
2023/01/17 03:16:26;;;;;;;4.47;1.40;;;3.60;75.40;;;;;;4153855;28;20026;-86
2023/01/17 03:18:27;;;;;;;1.80;1.20;;;3.60;76.10;;;;;;4148428;28;20029;-88
2023/01/17 03:20:48;;;;;;;2.03;1.02;;;3.60;75.60;;;;;;4145883;28;20029;-86
2023/01/17 03:22:49;;;;;;;1.98;1.23;;;3.60;75.50;;;;;;4151598;28;20099;-87
2023/01/17 03:25:09;;;;;;;2.97;1.00;;;3.70;75.70;;;;;;4134903;28;20463;-86
2023/01/17 03:27:30;;;;;;;4.68;1.40;;;3.60;75.60;;;;;;4149151;28;20078;-86
2023/01/17 03:29:51;;;;;;;1.88;1.17;;;3.60;75.50;;;;;;4151235;28;20026;-88
2023/01/17 03:31:53;;;;;;;1.60;1.15;;;3.60;76.10;;;;;;4135495;28;20422;-87
2023/01/17 03:34:14;;;;;;;1.55;1.20;;;3.50;75.30;;;;;;4151485;28;20414;-88
2023/01/17 03:36:34;;;;;;;2.55;1.00;;;3.60;76.10;;;;;;4136743;28;20622;-87
2023/01/17 03:38:55;;;;;;;1.55;1.10;;;3.50;75.40;;;;;;4155301;28;20034;-87
2023/01/17 03:41:16;;;;;;;2.03;1.10;;;3.50;75.50;;;;;;4141420;28;20042;-87
2023/01/17 03:43:37;;;;;;;2.65;1.35;;;3.50;75.60;;;;;;4154760;28;20063;-88
2023/01/17 03:46:06;;;;;;;2.22;1.55;;;3.50;75.60;;;;;;4151587;28;20022;-88
2023/01/17 03:48:27;;;;;;;2.03;1.10;;;3.50;75.60;;;;;;4153340;28;20033;-87
2023/01/17 03:50:51;;;;;;;2.58;1.20;;;3.50;75.70;;;;;;4136307;28;20042;-88
2023/01/17 03:53:11;;;;;;;4.10;1.35;;;3.50;75.70;;;;;;4147237;28;20060;-87
2023/01/17 03:55:32;;;;;;;3.95;1.40;;;3.50;75.70;;;;;;4136129;28;20121;-87
2023/01/17 03:57:53;;;;;;;2.55;1.42;;;3.60;75.80;;;;;;4155036;28;20405;-87
2023/01/17 04:00:13;;;;;;;2.22;1.40;;;3.40;75.70;;;;;;4153950;28;20034;-87
2023/01/17 04:02:34;;;;;;;3.08;2.05;;;3.50;75.80;;;;;;4151438;28;20148;-86
2023/01/17 04:04:55;;;;;;;2.42;1.60;;;3.40;75.70;;;;;;4152279;28;20075;-85
2023/01/17 04:07:16;;;;;;;4.28;2.10;;;3.40;75.70;;;;;;4154514;28;20029;-86
2023/01/17 04:09:36;;;;;;;2.45;1.40;;;3.40;75.70;;;;;;4135821;28;20038;-86
2023/01/17 04:11:57;;;;;;;3.28;1.77;;;3.40;75.60;;;;;;4153674;28;20045;-87
2023/01/17 04:14:17;;;;;;;3.25;1.60;;;3.40;75.60;;;;;;4152050;28;20116;-87
2023/01/17 04:16:38;;;;;;;3.30;1.40;;;3.30;75.50;;;;;;4133611;28;20116;-87
2023/01/17 04:18:59;;;;;;;1.92;1.55;;;3.30;75.50;;;;;;4150881;28;20037;-86
2023/01/17 04:21:19;;;;;;;2.83;1.65;;;3.30;75.50;;;;;;4141849;28;20494;-86
2023/01/17 04:23:40;;;;;;;3.38;1.50;;;3.30;75.50;;;;;;4162744;28;20059;-87
2023/01/17 04:26:02;;;;;;;1.83;1.33;;;3.30;75.60;;;;;;4139063;28;20054;-87
2023/01/17 04:28:23;;;;;;;4.10;1.60;;;3.20;75.50;;;;;;4149758;28;20041;-86
2023/01/17 04:30:43;;;;;;;2.35;1.60;;;3.20;75.60;;;;;;4150423;28;20030;-86
2023/01/17 04:33:04;;;;;;;2.97;1.90;;;3.20;75.60;;;;;;4153251;28;20033;-86
2023/01/17 04:35:25;;;;;;;1.48;1.38;;;3.20;75.70;;;;;;4153806;28;20021;-88
2023/01/17 04:37:46;;;;;;;3.00;1.77;;;3.20;75.80;;;;;;4151711;28;20156;-86
2023/01/17 04:40:08;;;;;;;3.05;1.70;;;3.20;75.90;;;;;;4141289;28;20116;-86
2023/01/17 04:42:28;;;;;;;3.05;1.58;;;3.20;76.00;;;;;;4155395;28;20026;-86
2023/01/17 04:44:49;;;;;;;2.47;1.73;;;3.20;76.10;;;;;;4150646;28;20091;-87
2023/01/17 04:47:10;;;;;;;2.60;1.70;;;3.20;76.10;;;;;;4150652;28;20037;-88
2023/01/17 04:49:30;;;;;;;2.72;1.60;;;3.20;76.20;;;;;;4146772;28;20083;-87
2023/01/17 04:51:51;;;;;;;3.25;1.75;;;3.20;76.20;;;;;;4154312;28;20028;-88
2023/01/17 04:54:11;;;;;;;2.53;1.85;;;3.20;76.30;;;;;;4151930;28;20037;-88
2023/01/17 04:56:32;;;;;;;2.40;1.73;;;3.20;76.40;;;;;;4158614;28;20029;-87
2023/01/17 04:58:56;;;;;;;1.88;1.58;;;3.20;76.40;;;;;;4158357;28;20025;-88
2023/01/17 05:01:16;;;;;;;2.00;1.60;;;3.20;76.50;;;;;;4134448;28;20158;-87
2023/01/17 05:03:37;;;;;;;3.47;1.70;;;3.20;76.50;;;;;;4133420;28;20033;-85
2023/01/17 05:05:59;;;;;;;3.15;1.90;;;3.20;76.40;;;;;;4133613;28;20030;-85
2023/01/17 05:08:19;;;;;;;2.10;1.77;;;3.20;76.50;;;;;;4154528;28;20041;-85
2023/01/17 05:10:40;;;;;;;2.38;1.55;;;3.20;76.50;;;;;;4153188;28;20025;-85
2023/01/17 05:13:01;;;;;;;2.55;1.73;;;3.20;76.50;;;;;;4139794;28;20038;-85
2023/01/17 05:15:23;;;;;;;2.72;1.80;;;3.20;76.50;;;;;;4153427;28;20100;-85
2023/01/17 05:17:24;;;;;;;1.73;1.20;;;3.20;76.50;;;;;;4131975;28;20032;-85
2023/01/17 05:19:25;;;;;;;4.03;1.90;;;3.20;76.50;;;;;;4138908;28;20112;-85
2023/01/17 05:21:26;;;;;;;2.60;1.80;;;3.20;76.60;;;;;;4156065;28;20025;-86
2023/01/17 05:23:27;;;;;;;2.20;1.67;;;3.20;77.40;;;;;;4126043;28;20033;-84
2023/01/17 05:25:30;;;;;;;4.15;2.03;;;3.20;76.70;;;;;;4156982;28;20037;-85
2023/01/17 05:27:30;;;;;;;3.00;2.10;;;3.20;76.70;;;;;;4135453;28;20025;-86
2023/01/17 05:29:31;;;;;;;2.58;2.10;;;3.20;76.70;;;;;;4157288;28;20039;-84
2023/01/17 05:31:32;;;;;;;3.95;1.98;;;3.20;76.70;;;;;;4135704;28;20041;-85
2023/01/17 05:33:32;;;;;;;4.05;2.35;;;3.20;76.80;;;;;;4141413;28;20699;-85
2023/01/17 05:35:33;;;;;;;3.17;2.25;;;3.20;76.80;;;;;;4155645;28;20038;-85
2023/01/17 05:37:34;;;;;;;4.65;2.80;;;3.20;76.80;;;;;;4157862;28;20393;-85
2023/01/17 05:39:34;;;;;;;4.28;2.80;;;3.20;76.80;;;;;;4142329;28;20054;-85
2023/01/17 05:41:35;;;;;;;5.93;2.80;;;3.20;76.80;;;;;;4144082;28;20030;-85
2023/01/17 05:43:37;;;;;;;4.55;2.80;;;3.20;76.80;;;;;;4136025;28;20030;-86
2023/01/17 05:45:37;;;;;;;4.20;2.88;;;3.30;76.90;;;;;;4143925;28;20081;-84
2023/01/17 05:47:38;;;;;;;8.63;3.38;;;3.20;76.90;;;;;;4157749;28;20133;-84
2023/01/17 05:49:39;;;;;;;4.57;3.10;;;3.20;76.80;;;;;;4140196;28;20026;-85
2023/01/17 05:51:40;;;;;;;5.57;3.40;;;3.20;76.80;;;;;;4146476;28;20026;-86
2023/01/17 05:53:42;;;;;;;4.88;3.13;;;3.30;76.90;;;;;;4140053;28;20127;-85
2023/01/17 05:55:43;;;;;;;5.00;2.97;;;3.20;76.90;;;;;;4158101;28;20496;-85
2023/01/17 05:57:44;;;;;;;5.65;3.70;;;3.30;77.00;;;;;;4159479;28;20037;-85
2023/01/17 05:59:46;;;;;;;7.18;3.50;;;3.30;77.00;;;;;;4135730;28;20025;-86
2023/01/17 06:01:46;;;;;;;5.93;3.70;;;3.20;77.00;;;;;;4128637;28;20506;-86
2023/01/17 06:03:49;;;;;;;5.47;3.67;;;3.30;77.10;;;;;;4144089;28;20025;-86
2023/01/17 06:05:50;;;;;;;4.85;3.40;;;3.30;77.10;;;;;;4135207;28;20026;-86
2023/01/17 06:07:51;;;;;;;6.43;4.20;;;3.30;77.10;;;;;;4121178;28;20085;-85
2023/01/17 06:09:52;;;;;;;8.15;4.07;;;3.30;77.20;;;;;;4154193;28;20489;-85
2023/01/17 06:11:53;;;;;;;8.10;5.18;;;3.30;77.30;;;;;;4139078;28;20030;-86
2023/01/17 06:13:54;;;;;;;10.63;5.47;;;3.30;77.30;;;;;;4135323;28;20518;-84
2023/01/17 06:16:01;;;;;;;10.85;5.53;;;3.30;77.50;;;;;;4154966;28;20920;-86
2023/01/17 06:18:10;;;;;;;7.25;4.97;;;3.30;77.30;;;;;;4159080;28;20044;-85
2023/01/17 06:20:11;;;;;;;11.32;5.80;;;3.30;77.40;;;;;;4136494;28;20029;-85
2023/01/17 06:22:12;;;;;;;11.15;6.13;;;3.30;77.40;;;;;;4159521;28;20055;-85
2023/01/17 06:24:13;;;;;;;12.18;6.03;;;3.30;77.40;;;;;;4157200;28;20104;-85
2023/01/17 06:26:13;;;;;;;10.27;6.18;;;3.30;77.40;;;;;;4159293;28;20072;-85
2023/01/17 06:28:17;;;;;;;12.25;6.20;;;3.30;77.50;;;;;;4128390;28;20035;-85
2023/01/17 06:30:18;;;;;;;10.95;6.38;;;3.50;77.60;;;;;;4150209;28;20187;-85
2023/01/17 06:32:19;;;;;;;12.50;6.93;;;3.40;77.60;;;;;;4157833;28;20030;-85
2023/01/17 06:34:20;;;;;;;11.77;7.63;;;3.30;77.50;;;;;;4135898;28;20307;-85
2023/01/17 06:36:23;;;;;;;13.55;7.72;;;3.40;77.70;;;;;;4160643;28;20069;-86
2023/01/17 06:38:23;;;;;;;12.85;7.40;;;3.40;77.60;;;;;;4143901;28;20033;-85
2023/01/17 06:40:25;;;;;;;16.10;7.53;;;3.40;77.70;;;;;;4142396;28;20038;-85
2023/01/17 06:42:27;;;;;;;14.27;8.15;;;3.40;77.70;;;;;;4134790;28;20034;-85
2023/01/17 06:44:28;;;;;;;15.05;7.85;;;3.40;77.70;;;;;;4147823;28;20116;-86
2023/01/17 06:46:29;;;;;;;14.93;8.57;;;3.40;77.70;;;;;;4141983;28;20518;-86
2023/01/17 06:48:30;;;;;;;15.00;9.23;;;3.40;77.80;;;;;;4142064;28;20030;-85
2023/01/17 06:50:32;;;;;;;17.33;9.65;;;3.40;77.70;;;;;;4159869;28;20497;-85
2023/01/17 06:52:33;;;;;;;19.58;10.40;;;3.40;77.80;;;;;;4128031;28;20041;-85
2023/01/17 06:54:34;;;;;;;16.15;9.80;;;3.40;77.90;;;;;;4144143;28;20022;-86
2023/01/17 06:56:35;;;;;;;17.13;9.82;;;3.40;77.80;;;;;;4143402;28;20030;-85
2023/01/17 06:58:36;;;;;;;20.17;9.77;;;3.60;78.00;;;;;;4159330;28;20436;-85
2023/01/17 07:00:37;;;;;;;16.65;9.63;;;3.40;77.80;;;;;;4161057;28;20029;-85
2023/01/17 07:02:37;;;;;;;21.02;10.13;;;3.40;77.90;;;;;;4135967;28;20030;-85
2023/01/17 07:04:38;;;;;;;19.00;11.07;;;3.40;78.00;;;;;;4140798;28;20032;-86
2023/01/17 07:06:38;;;;;;;18.42;10.90;;;3.40;78.10;;;;;;4137894;28;20030;-86
2023/01/17 07:08:39;;;;;;;16.33;10.13;;;3.40;78.10;;;;;;4141141;28;20034;-86
2023/01/17 07:10:45;;;;;;;16.95;10.38;;;3.40;78.00;;;;;;4141674;28;20076;-85
2023/01/17 07:12:46;;;;;;;14.45;9.50;;;3.50;78.20;;;;;;4155625;28;20045;-86
2023/01/17 07:14:47;;;;;;;13.70;8.18;;;3.40;78.20;;;;;;4137010;28;20113;-85
2023/01/17 07:16:48;;;;;;;10.73;7.03;;;3.40;78.10;;;;;;4154555;28;20062;-85
2023/01/17 07:18:50;;;;;;;8.70;6.30;;;3.40;78.10;;;;;;4158289;28;20033;-85
2023/01/17 07:20:52;;;;;;;8.55;5.82;;;3.40;77.80;;;;;;4158583;28;20498;-86
2023/01/17 07:22:53;;;;;;;8.70;5.45;;;3.50;77.80;;;;;;4124959;28;20066;-85
2023/01/17 07:24:57;;;;;;;6.43;4.47;;;3.40;77.50;;;;;;4145868;28;20030;-85
2023/01/17 07:26:59;;;;;;;10.32;4.82;;;3.40;77.40;;;;;;4145345;28;20603;-85
2023/01/17 07:29:20;;;;;;;6.75;3.97;;;3.30;77.10;;;;;;4165149;28;20042;-85
2023/01/17 07:31:20;;;;;;;8.32;3.63;;;3.30;77.10;;;;;;4139239;28;20057;-86
2023/01/17 07:33:41;;;;;;;4.65;1.85;;;3.30;77.10;;;;;;4156901;28;20112;-85
2023/01/17 07:36:08;;;;;;;2.10;1.63;;;3.20;77.00;;;;;;4156497;28;20034;-86
2023/01/17 07:38:29;;;;;;;2.00;1.50;;;3.20;77.00;;;;;;4157931;28;20052;-86
2023/01/17 07:40:49;;;;;;;2.83;1.30;;;3.10;77.00;;;;;;4156499;28;20026;-85
2023/01/17 07:43:13;;;;;;;2.78;0.80;;;3.10;77.00;;;;;;4156426;28;20401;-85
2023/01/17 07:45:33;;;;;;;0.68;0.50;;;3.00;77.10;;;;;;4134276;28;20022;-86
2023/01/17 07:47:34;;;;;;;0.63;0.20;;;2.90;77.10;;;;;;4133244;28;20423;-85
2023/01/17 07:49:35;;;;;;;0.65;0.17;;;2.80;77.10;;;;;;4138093;28;20028;-85
2023/01/17 07:51:35;;;;;;;0.00;0.00;;;2.70;77.20;;;;;;4138566;28;20355;-85
2023/01/17 07:53:36;;;;;;;0.10;0.05;;;2.70;77.30;;;;;;4155508;28;20052;-85
2023/01/17 07:55:37;;;;;;;2.10;0.17;;;2.60;77.30;;;;;;4135723;28;20026;-85
2023/01/17 07:57:37;;;;;;;0.00;0.00;;;2.50;77.20;;;;;;4157691;28;20025;-86
2023/01/17 07:59:38;;;;;;;1.15;0.30;;;2.50;77.30;;;;;;4140135;28;20025;-86
2023/01/17 08:01:39;;;;;;;1.75;0.20;;;2.50;77.20;;;;;;4155609;28;20040;-85
2023/01/17 08:03:40;;;;;;;1.15;0.22;;;2.40;77.40;;;;;;4139832;28;20077;-85
2023/01/17 08:05:42;;;;;;;8.52;0.30;;;2.30;77.60;;;;;;4140115;28;20053;-86
2023/01/17 08:07:43;;;;;;;6.10;0.40;;;2.20;77.90;;;;;;4138981;28;20026;-85
2023/01/17 08:09:48;;;;;;;2.20;0.22;;;2.10;78.30;;;;;;4156401;28;20519;-85
2023/01/17 08:11:48;;;;;;;3.40;0.20;;;2.10;78.30;;;;;;4157337;28;20148;-85
2023/01/17 08:13:56;;;;;;;1.17;0.10;;;2.10;78.50;;;;;;4154701;28;20080;-85
2023/01/17 08:15:56;;;;;;;15.52;0.63;;;2.10;78.80;;;;;;4135337;28;20033;-85
2023/01/17 08:17:57;;;;;;;1.48;0.30;;;1.90;78.90;;;;;;4155433;28;20040;-87
2023/01/17 08:19:58;;;;;;;0.98;0.20;;;2.00;79.30;;;;;;4158518;28;20049;-85
2023/01/17 08:21:59;;;;;;;4.97;0.40;;;1.90;79.40;;;;;;4129215;28;20573;-86
2023/01/17 08:24:00;;;;;;;2.72;0.30;;;1.90;79.60;;;;;;4133345;28;20039;-85
2023/01/17 08:26:01;;;;;;;3.55;0.55;;;1.90;79.80;;;;;;4156877;28;20492;-85
2023/01/17 08:28:21;;;;;;;2.10;0.20;;;1.90;79.90;;;;;;4145910;28;20029;-85
2023/01/17 08:30:42;;;;;;;2.95;0.40;;;1.90;80.00;;;;;;4156704;28;20397;-85
2023/01/17 08:33:02;;;;;;;1.70;0.20;;;1.80;79.90;;;;;;4139903;28;20435;-85
2023/01/17 08:35:23;;;;;;;1.92;0.25;;;1.80;80.00;;;;;;4156045;28;20059;-85
2023/01/17 08:37:44;;;;;;;1.38;0.22;;;1.80;80.10;;;;;;4155126;28;20390;-85
2023/01/17 08:40:06;;;;;;;1.85;0.28;;;1.80;80.20;;;;;;4163423;28;20064;-86
2023/01/17 08:42:25;;;;;;;3.47;0.52;;;1.80;80.30;;;;;;4142902;28;20026;-84
2023/01/17 08:44:45;;;;;;;1.48;0.30;;;1.70;80.50;;;;;;4156814;28;20100;-85
2023/01/17 08:47:06;;;;;;;4.28;0.40;;;1.70;80.70;;;;;;4137142;28;20499;-85
2023/01/17 08:49:27;;;;;;;2.35;0.25;;;1.80;80.70;;;;;;4136423;28;20034;-87
2023/01/17 08:51:48;;;;;;;7.22;0.40;;;1.80;80.70;;;;;;4139286;28;20512;-85
2023/01/17 08:53:55;;;;;;;3.08;0.30;;;1.80;80.60;;;;;;4117670;28;20018;-86
2023/01/17 08:56:15;;;;;;;1.90;0.30;;;1.70;80.70;;;;;;4156683;28;20105;-85
2023/01/17 08:58:36;;;;;;;5.50;0.40;;;1.80;80.80;;;;;;4138576;28;20406;-84
2023/01/17 09:01:04;;;;;;;3.42;0.45;;;1.80;81.00;;;;;;4160418;28;20077;-85
2023/01/17 09:03:25;;;;;;;2.60;0.40;;;1.80;81.10;;;;;;4162022;28;20025;-85
2023/01/17 09:05:45;;;;;;;6.50;0.77;;;1.80;81.20;;;;;;4161795;28;20784;-87
2023/01/17 09:08:06;;;;;;;3.97;0.40;;;1.80;81.20;;;;;;4146725;28;20129;-87
2023/01/17 09:10:17;;;;;;;3.50;0.57;;;1.80;81.20;;;;;;4119360;28;20458;-86
2023/01/17 09:12:39;;;;;;;6.55;0.60;;;1.80;81.20;;;;;;4161691;28;20049;-86
2023/01/17 09:15:01;;;;;;;4.03;0.40;;;1.90;81.50;;;;;;4160147;28;20037;-86
2023/01/17 09:17:21;;;;;;;7.63;0.38;;;1.90;81.40;;;;;;4141493;28;20030;-86
2023/01/17 09:19:44;;;;;;;5.75;0.45;;;1.90;81.40;;;;;;4161523;28;20029;-86
2023/01/17 09:22:05;;;;;;;7.25;0.82;;;2.00;81.40;;;;;;4154590;28;20046;-86
2023/01/17 09:24:26;;;;;;;6.55;0.70;;;2.00;82.20;;;;;;4139894;28;20038;-86
2023/01/17 09:26:46;;;;;;;3.88;0.43;;;2.00;81.40;;;;;;4157682;28;20026;-86
2023/01/17 09:29:07;;;;;;;6.57;0.50;;;2.10;81.40;;;;;;4159841;28;20026;-86
2023/01/17 09:31:27;;;;;;;9.35;0.70;;;2.10;81.40;;;;;;4157906;28;20032;-86
2023/01/17 09:33:50;;;;;;;6.60;0.70;;;2.10;81.30;;;;;;4156989;28;20025;-86
2023/01/17 09:36:04;;;;;;;4.88;0.60;;;2.20;81.40;;;;;;4141652;28;20132;-86
2023/01/17 09:38:24;;;;;;;7.93;0.75;;;2.20;81.30;;;;;;4161254;28;20084;-86
2023/01/17 09:40:47;;;;;;;2.97;0.60;;;2.30;81.90;;;;;;4150695;28;20396;-86
2023/01/17 09:43:24;;;;;;;12.50;0.93;;;2.30;81.10;;;;;;4141113;28;20184;-86
2023/01/17 09:45:45;;;;;;;6.78;0.90;;;2.40;81.10;;;;;;4140365;28;20452;-86
2023/01/17 09:48:13;;;;;;;5.32;0.70;;;2.40;81.00;;;;;;4144636;28;20029;-86
2023/01/17 09:50:45;;;;;;;8.93;1.05;;;2.40;80.90;;;;;;4143000;28;20112;-86
2023/01/17 09:53:13;;;;;;;5.75;0.90;;;2.50;80.80;;;;;;4160670;28;20029;-85
2023/01/17 09:55:40;;;;;;;7.65;1.20;;;2.50;80.80;;;;;;4159776;28;20116;-86
2023/01/17 09:58:42;;;;;;;11.80;1.20;;;2.60;80.80;;;;;;4144978;28;20025;-86
2023/01/17 10:01:29;;;;;;;13.45;0.88;;;2.60;80.70;;;;;;4157772;28;20029;-86
2023/01/17 10:04:17;;;;;;;8.57;0.80;;;2.70;80.60;;;;;;4163197;28;20030;-86
2023/01/17 10:07:29;;;;;;;5.50;0.90;;;2.70;80.50;;;;;;4141947;28;20037;-86
2023/01/17 10:09:58;;;;;;;2.97;0.70;;;2.80;80.50;;;;;;4131399;28;20056;-86
2023/01/17 10:12:35;;;;;;;10.45;1.10;;;2.80;80.40;;;;;;4159603;28;20044;-86
2023/01/17 10:15:14;;;;;;;9.23;1.35;;;2.80;80.30;;;;;;4160470;28;20018;-86
2023/01/17 10:18:01;;;;;;;7.82;1.13;;;2.90;80.30;;;;;;4157843;28;20033;-86
2023/01/17 10:20:48;;;;;;;7.85;0.80;;;2.90;80.10;;;;;;4159785;28;20029;-86
2023/01/17 10:23:46;;;;;;;11.13;1.00;;;2.90;80.00;;;;;;4142494;28;20041;-85
2023/01/17 10:26:26;;;;;;;5.38;0.70;;;3.00;80.00;;;;;;4157885;28;20030;-86
2023/01/17 10:28:50;;;;;;;9.38;0.82;;;3.00;79.90;;;;;;4159028;28;20025;-85
2023/01/17 10:31:18;;;;;;;9.90;1.00;;;3.00;80.00;;;;;;4159310;28;20045;-85
2023/01/17 10:33:56;;;;;;;9.18;1.00;;;3.10;79.90;;;;;;4142095;28;20405;-85
2023/01/17 10:36:25;;;;;;;9.45;1.00;;;3.10;79.90;;;;;;4135060;28;20120;-84
2023/01/17 10:38:50;;;;;;;6.45;0.80;;;3.10;79.90;;;;;;4140721;28;20065;-85
2023/01/17 10:41:25;;;;;;;10.68;0.80;;;3.30;80.10;;;;;;4158299;28;20041;-85
2023/01/17 10:43:58;;;;;;;7.68;1.33;;;3.20;79.80;;;;;;4154512;28;20043;-84
2023/01/17 10:46:27;;;;;;;7.35;0.77;;;3.20;80.40;;;;;;4152978;28;20025;-84
2023/01/17 10:48:36;;;;;;;13.73;0.93;;;3.30;79.60;;;;;;4147964;28;20025;-84
2023/01/17 10:50:57;;;;;;;10.73;1.00;;;3.30;79.50;;;;;;4132119;28;20128;-85
2023/01/17 10:53:42;;;;;;;5.55;0.82;;;3.30;79.40;;;;;;4149809;28;20029;-84
2023/01/17 10:55:52;;;;;;;12.38;1.17;;;3.30;79.50;;;;;;4135929;28;20444;-85
2023/01/17 10:57:53;;;;;;;11.13;1.08;;;3.30;79.40;;;;;;4128663;28;20029;-85
2023/01/17 10:59:58;;;;;;;9.57;1.15;;;3.30;79.30;;;;;;4157347;28;20494;-86
2023/01/17 11:02:05;;;;;;;7.75;1.35;;;3.30;79.10;;;;;;4159733;28;20078;-86
2023/01/17 11:04:33;;;;;;;7.03;0.70;;;3.30;78.70;;;;;;4141305;28;20525;-86
2023/01/17 11:06:37;;;;;;;3.35;0.50;;;3.40;78.60;;;;;;4157722;28;20802;-87
2023/01/17 11:08:53;;;;;;;5.47;0.68;;;3.40;78.10;;;;;;4158216;28;20055;-86
2023/01/17 11:10:54;;;;;;;9.25;0.93;;;3.40;78.30;;;;;;4138937;28;20506;-86
2023/01/17 11:12:54;;;;;;;5.07;0.60;;;3.40;78.00;;;;;;4156426;28;20049;-87
2023/01/17 11:15:16;;;;;;;4.13;0.50;;;3.40;77.70;;;;;;4138521;28;20353;-87
2023/01/17 11:17:18;;;;;;;4.45;0.65;;;3.50;77.70;;;;;;4133003;28;20025;-85
2023/01/17 11:19:50;;;;;;;6.25;0.75;;;3.50;77.60;;;;;;4136369;28;20030;-86
2023/01/17 11:22:03;;;;;;;2.53;0.22;;;3.50;77.00;;;;;;4159497;28;20733;-86
2023/01/17 11:24:11;;;;;;;;;;;3.40;76.00;;;;;;4131949;28;20054;-87
2023/01/17 11:26:23;;;;;;;4.20;0.43;;;3.40;75.60;;;;;;4134605;28;19925;-87
2023/01/17 11:28:35;;;;;;;2.83;0.47;;;3.40;75.10;;;;;;4153215;28;20041;-87
2023/01/17 11:30:36;;;;;;;4.30;0.40;;;3.40;75.10;;;;;;4128729;28;20019;-86
2023/01/17 11:32:37;;;;;;;2.97;0.20;;;3.30;75.20;;;;;;4139290;28;20521;-86
2023/01/17 11:34:37;;;;;;;2.15;0.30;;;3.30;75.20;;;;;;4138562;28;20091;-86
2023/01/17 11:36:38;;;;;;;4.18;0.65;;;3.30;75.20;;;;;;4159611;28;20033;-86
2023/01/17 11:38:40;;;;;;;7.95;0.63;;;3.30;75.50;;;;;;4155026;28;20773;-87
2023/01/17 11:40:45;;;;;;;8.48;0.70;;;3.30;75.70;;;;;;4156681;28;20036;-86
2023/01/17 11:42:57;;;;;;;2.00;0.40;;;3.30;75.70;;;;;;4136269;28;20026;-87
2023/01/17 11:45:30;;;;;;;6.75;0.55;;;3.40;75.90;;;;;;4150787;28;20029;-86
2023/01/17 11:48:12;;;;;;;3.75;0.50;;;3.40;75.80;;;;;;4154578;28;20103;-86
2023/01/17 11:50:36;;;;;;;4.22;0.50;;;3.50;76.20;;;;;;4169870;28;20037;-85
2023/01/17 11:53:06;;;;;;;5.30;0.73;;;3.50;76.30;;;;;;4142809;28;20075;-86
2023/01/17 11:55:26;;;;;;;3.78;0.65;;;3.60;76.50;;;;;;4152807;28;20083;-87
2023/01/17 11:57:49;;;;;;;3.90;0.68;;;3.60;76.70;;;;;;4156198;28;20087;-86
2023/01/17 12:00:27;;;;;;;6.05;0.90;;;3.70;76.80;;;;;;4153047;28;20034;-86
2023/01/17 12:03:23;;;;;;;10.60;0.93;;;3.70;76.90;;;;;;4154419;28;20504;-87
2023/01/17 12:05:52;;;;;;;6.05;0.65;;;3.80;76.80;;;;;;4155797;28;20025;-86
2023/01/17 12:08:15;;;;;;;8.73;0.75;;;3.80;76.70;;;;;;4138173;28;20029;-85
2023/01/17 12:10:48;;;;;;;10.18;1.02;;;3.90;76.60;;;;;;4157841;28;20068;-86
2023/01/17 12:16:37;;;;;;;6.13;1.13;;;4.00;76.50;;;;;;4156294;28;20033;-87
2023/01/17 12:19:16;;;;;;;7.50;1.40;;;4.10;76.40;;;;;;4155639;28;20041;-87
2023/01/17 12:21:57;;;;;;;7.28;0.80;;;4.10;76.10;;;;;;4155073;28;20041;-87
2023/01/17 12:24:41;;;;;;;6.18;0.93;;;4.10;75.10;;;;;;4155815;28;20045;-86
2023/01/17 12:27:33;;;;;;;7.28;0.60;;;4.20;75.20;;;;;;4154104;28;20022;-86
2023/01/17 12:30:25;;;;;;;4.28;0.68;;;4.20;74.00;;;;;;4157294;28;20540;-86
2023/01/17 12:33:11;;;;;;;6.07;0.55;;;4.20;73.50;;;;;;4141482;28;20078;-87
2023/01/17 12:35:37;;;;;;;6.10;0.70;;;4.30;72.30;;;;;;4142660;28;20028;-86
2023/01/17 12:38:06;;;;;;;6.13;0.65;;;4.40;71.80;;;;;;4141299;28;20029;-86
2023/01/17 12:40:32;;;;;;;5.28;0.43;;;4.20;70.40;;;;;;4142803;28;20034;-88
2023/01/17 12:43:03;;;;;;;3.85;0.43;;;4.20;70.50;;;;;;4144088;28;20032;-87
2023/01/17 12:45:30;;;;;;;3.63;0.63;;;4.20;70.10;;;;;;4160140;28;20063;-87
2023/01/17 12:47:58;;;;;;;3.53;0.43;;;4.20;69.70;;;;;;4158723;28;20056;-86
2023/01/17 12:50:36;;;;;;;4.88;0.55;;;4.20;69.60;;;;;;4158467;28;20059;-87
2023/01/17 12:53:26;;;;;;;6.13;0.73;;;4.20;69.10;;;;;;4156485;28;20193;-87
2023/01/17 12:56:13;;;;;;;6.82;1.17;;;4.10;68.70;;;;;;4168197;28;20064;-86
2023/01/17 12:58:49;;;;;;;7.32;0.88;;;4.10;68.50;;;;;;4159026;28;20041;-87
2023/01/17 13:01:30;;;;;;;8.88;0.90;;;4.10;68.50;;;;;;4145653;28;20053;-87
2023/01/17 13:04:14;;;;;;;3.58;0.45;;;4.10;68.70;;;;;;4155565;28;20117;-87
2023/01/17 13:06:59;;;;;;;12.97;0.50;;;4.00;69.00;;;;;;4160464;28;20026;-86
2023/01/17 13:09:22;;;;;;;4.63;0.60;;;4.00;69.40;;;;;;4160928;28;20065;-86
2023/01/17 13:12:07;;;;;;;7.57;0.60;;;4.00;69.40;;;;;;4158062;28;20542;-87
2023/01/17 13:14:27;;;;;;;2.40;0.50;;;4.10;69.60;;;;;;4166692;28;20037;-87
2023/01/17 13:16:57;;;;;;;6.72;0.70;;;4.10;70.20;;;;;;4161911;28;20049;-87
2023/01/17 13:19:24;;;;;;;3.70;0.70;;;4.10;69.80;;;;;;4160850;28;20040;-86
2023/01/17 13:21:47;;;;;;;9.98;1.77;;;4.10;70.60;;;;;;4160155;28;20025;-87